sensor_id;sensor_type;location;lat;lon;timestamp;P1;P2;P0
44933;PMS3003;30667;43.614;1.442;2023-01-28T00:00:32;15.50;14.75;9.00
44933;PMS3003;30667;43.614;1.442;2023-01-28T00:02:58;15.50;14.75;7.00
44933;PMS3003;30667;43.614;1.442;2023-01-28T00:05:23;16.25;15.00;8.25
44933;PMS3003;30667;43.614;1.442;2023-01-28T00:07:49;38.00;31.50;19.00
44933;PMS3003;30667;43.614;1.442;2023-01-28T00:10:15;28.80;27.60;17.00
44933;PMS3003;30667;43.614;1.442;2023-01-28T00:12:41;15.75;15.00;8.50
44933;PMS3003;30667;43.614;1.442;2023-01-28T00:15:07;18.00;14.20;7.00
44933;PMS3003;30667;43.614;1.442;2023-01-28T00:17:34;13.80;12.60;8.60
44933;PMS3003;30667;43.614;1.442;2023-01-28T00:20:00;15.60;14.60;8.80
44933;PMS3003;30667;43.614;1.442;2023-01-28T00:22:27;20.80;18.20;9.80
44933;PMS3003;30667;43.614;1.442;2023-01-28T00:24:52;20.00;17.75;10.00
44933;PMS3003;30667;43.614;1.442;2023-01-28T00:27:17;18.00;17.25;10.00
44933;PMS3003;30667;43.614;1.442;2023-01-28T00:29:43;16.00;13.00;6.00
44933;PMS3003;30667;43.614;1.442;2023-01-28T00:32:08;18.50;15.00;9.25
44933;PMS3003;30667;43.614;1.442;2023-01-28T00:34:34;13.00;12.25;6.75
44933;PMS3003;30667;43.614;1.442;2023-01-28T00:36:59;15.00;12.00;7.00
44933;PMS3003;30667;43.614;1.442;2023-01-28T00:39:25;13.00;13.00;6.00
44933;PMS3003;30667;43.614;1.442;2023-01-28T00:41:51;18.60;13.20;8.20
44933;PMS3003;30667;43.614;1.442;2023-01-28T00:44:18;14.00;10.00;6.00
44933;PMS3003;30667;43.614;1.442;2023-01-28T00:46:44;14.80;10.80;6.00
44933;PMS3003;30667;43.614;1.442;2023-01-28T00:49:10;11.20;10.00;6.00
44933;PMS3003;30667;43.614;1.442;2023-01-28T00:51:36;15.50;11.50;6.00
44933;PMS3003;30667;43.614;1.442;2023-01-28T00:54:01;14.50;10.00;6.00
44933;PMS3003;30667;43.614;1.442;2023-01-28T00:56:27;17.40;12.00;6.00
44933;PMS3003;30667;43.614;1.442;2023-01-28T00:58:53;12.00;10.75;6.00
44933;PMS3003;30667;43.614;1.442;2023-01-28T01:01:20;16.75;12.25;4.50
44933;PMS3003;30667;43.614;1.442;2023-01-28T01:03:48;10.60;10.20;4.00
44933;PMS3003;30667;43.614;1.442;2023-01-28T01:06:22;13.80;10.80;4.40
44933;PMS3003;30667;43.614;1.442;2023-01-28T01:08:48;10.40;9.80;4.00
44933;PMS3003;30667;43.614;1.442;2023-01-28T01:11:14;11.00;11.00;6.00
44933;PMS3003;30667;43.614;1.442;2023-01-28T01:13:40;12.00;11.20;4.80
44933;PMS3003;30667;43.614;1.442;2023-01-28T01:16:07;12.00;11.20;7.20
44933;PMS3003;30667;43.614;1.442;2023-01-28T01:18:35;10.20;9.80;5.60
44933;PMS3003;30667;43.614;1.442;2023-01-28T01:21:13;12.80;12.20;5.60
44933;PMS3003;30667;43.614;1.442;2023-01-28T01:23:41;14.00;10.60;4.80
44933;PMS3003;30667;43.614;1.442;2023-01-28T01:26:06;13.75;11.75;6.00
44933;PMS3003;30667;43.614;1.442;2023-01-28T01:28:32;10.50;10.50;6.00
44933;PMS3003;30667;43.614;1.442;2023-01-28T01:31:01;12.25;11.50;5.50
44933;PMS3003;30667;43.614;1.442;2023-01-28T01:33:29;13.60;13.20;6.20
44933;PMS3003;30667;43.614;1.442;2023-01-28T01:35:55;12.00;10.00;4.00
44933;PMS3003;30667;43.614;1.442;2023-01-28T01:38:21;13.80;12.00;5.20
44933;PMS3003;30667;43.614;1.442;2023-01-28T01:40:47;14.50;10.75;6.25
44933;PMS3003;30667;43.614;1.442;2023-01-28T01:43:19;10.00;10.00;6.75
44933;PMS3003;30667;43.614;1.442;2023-01-28T01:45:56;12.60;11.80;6.20
44933;PMS3003;30667;43.614;1.442;2023-01-28T01:48:28;12.40;11.00;5.20
44933;PMS3003;30667;43.614;1.442;2023-01-28T01:51:01;14.00;13.00;6.40
44933;PMS3003;30667;43.614;1.442;2023-01-28T01:53:34;9.80;9.80;4.80
44933;PMS3003;30667;43.614;1.442;2023-01-28T01:56:06;10.60;8.60;3.40
44933;PMS3003;30667;43.614;1.442;2023-01-28T01:58:37;12.40;11.60;5.20
44933;PMS3003;30667;43.614;1.442;2023-01-28T02:01:06;10.20;9.20;4.80
44933;PMS3003;30667;43.614;1.442;2023-01-28T02:03:47;14.00;11.25;6.25
44933;PMS3003;30667;43.614;1.442;2023-01-28T02:06:21;13.00;11.60;5.60
44933;PMS3003;30667;43.614;1.442;2023-01-28T02:08:47;11.00;10.80;6.00
44933;PMS3003;30667;43.614;1.442;2023-01-28T02:11:13;14.75;13.50;6.75
44933;PMS3003;30667;43.614;1.442;2023-01-28T02:13:41;13.00;12.00;6.00
44933;PMS3003;30667;43.614;1.442;2023-01-28T02:16:11;15.00;12.40;5.20
44933;PMS3003;30667;43.614;1.442;2023-01-28T02:18:37;10.40;10.00;4.40
44933;PMS3003;30667;43.614;1.442;2023-01-28T02:21:09;18.00;15.00;6.00
44933;PMS3003;30667;43.614;1.442;2023-01-28T02:24:03;11.80;11.80;5.60
44933;PMS3003;30667;43.614;1.442;2023-01-28T02:26:49;12.20;10.00;6.00
44933;PMS3003;30667;43.614;1.442;2023-01-28T02:32:03;13.20;11.80;6.00
44933;PMS3003;30667;43.614;1.442;2023-01-28T02:34:48;11.60;11.60;4.80
44933;PMS3003;30667;43.614;1.442;2023-01-28T02:37:24;15.00;11.20;4.00
44933;PMS3003;30667;43.614;1.442;2023-01-28T02:39:59;13.40;9.20;3.40
44933;PMS3003;30667;43.614;1.442;2023-01-28T02:42:33;9.40;9.40;4.00
44933;PMS3003;30667;43.614;1.442;2023-01-28T02:45:01;13.40;12.20;5.60
44933;PMS3003;30667;43.614;1.442;2023-01-28T02:47:27;14.00;13.80;6.00
44933;PMS3003;30667;43.614;1.442;2023-01-28T02:50:12;12.80;10.40;4.40
44933;PMS3003;30667;43.614;1.442;2023-01-28T02:55:50;11.00;11.00;4.80
44933;PMS3003;30667;43.614;1.442;2023-01-28T02:58:41;9.60;9.20;5.20
44933;PMS3003;30667;43.614;1.442;2023-01-28T03:01:35;16.80;12.20;6.40
44933;PMS3003;30667;43.614;1.442;2023-01-28T03:06:54;11.60;10.20;4.00
44933;PMS3003;30667;43.614;1.442;2023-01-28T03:09:24;12.40;11.40;5.60
44933;PMS3003;30667;43.614;1.442;2023-01-28T03:14:44;13.80;13.60;6.00
44933;PMS3003;30667;43.614;1.442;2023-01-28T03:20:46;11.00;11.00;6.00
44933;PMS3003;30667;43.614;1.442;2023-01-28T03:23:36;11.60;9.80;4.40
44933;PMS3003;30667;43.614;1.442;2023-01-28T03:26:37;12.80;11.80;4.00
44933;PMS3003;30667;43.614;1.442;2023-01-28T03:29:43;12.80;11.40;6.20
44933;PMS3003;30667;43.614;1.442;2023-01-28T03:32:30;11.60;11.40;5.60
44933;PMS3003;30667;43.614;1.442;2023-01-28T03:35:15;12.00;11.00;4.80
44933;PMS3003;30667;43.614;1.442;2023-01-28T03:38:02;15.40;12.40;6.00
44933;PMS3003;30667;43.614;1.442;2023-01-28T03:40:51;14.00;11.20;6.00
44933;PMS3003;30667;43.614;1.442;2023-01-28T03:43:20;13.80;12.00;4.00
44933;PMS3003;30667;43.614;1.442;2023-01-28T03:45:47;14.60;13.80;6.00
44933;PMS3003;30667;43.614;1.442;2023-01-28T03:48:16;14.60;14.20;6.00
44933;PMS3003;30667;43.614;1.442;2023-01-28T03:50:49;10.60;10.60;5.60
44933;PMS3003;30667;43.614;1.442;2023-01-28T03:53:15;11.40;11.00;4.00
44933;PMS3003;30667;43.614;1.442;2023-01-28T03:55:42;15.00;14.20;6.80
44933;PMS3003;30667;43.614;1.442;2023-01-28T03:58:08;15.60;13.80;6.00
44933;PMS3003;30667;43.614;1.442;2023-01-28T04:00:34;21.00;16.00;6.20
44933;PMS3003;30667;43.614;1.442;2023-01-28T04:03:09;16.20;12.00;6.00
44933;PMS3003;30667;43.614;1.442;2023-01-28T04:05:44;12.40;11.20;4.00
44933;PMS3003;30667;43.614;1.442;2023-01-28T04:08:11;18.00;13.00;4.00
44933;PMS3003;30667;43.614;1.442;2023-01-28T04:10:38;12.80;12.80;6.20
44933;PMS3003;30667;43.614;1.442;2023-01-28T04:13:04;17.00;15.60;7.20
44933;PMS3003;30667;43.614;1.442;2023-01-28T04:15:30;17.00;13.80;6.20
44933;PMS3003;30667;43.614;1.442;2023-01-28T04:17:56;13.00;13.00;6.00
44933;PMS3003;30667;43.614;1.442;2023-01-28T04:20:22;12.50;12.25;4.00
44933;PMS3003;30667;43.614;1.442;2023-01-28T04:22:47;12.50;12.00;6.00
44933;PMS3003;30667;43.614;1.442;2023-01-28T04:25:12;13.50;10.75;5.00
44933;PMS3003;30667;43.614;1.442;2023-01-28T04:27:38;14.60;12.00;6.00
44933;PMS3003;30667;43.614;1.442;2023-01-28T04:30:04;14.00;12.50;6.00
44933;PMS3003;30667;43.614;1.442;2023-01-28T04:32:30;13.80;12.00;6.00
44933;PMS3003;30667;43.614;1.442;2023-01-28T04:34:56;13.60;12.20;4.40
44933;PMS3003;30667;43.614;1.442;2023-01-28T04:37:21;15.25;11.25;4.50
44933;PMS3003;30667;43.614;1.442;2023-01-28T04:39:46;12.75;12.50;5.75
44933;PMS3003;30667;43.614;1.442;2023-01-28T04:42:12;13.50;12.25;6.00
44933;PMS3003;30667;43.614;1.442;2023-01-28T04:44:38;14.40;13.40;6.80
44933;PMS3003;30667;43.614;1.442;2023-01-28T04:47:03;17.00;13.25;6.00
44933;PMS3003;30667;43.614;1.442;2023-01-28T04:49:28;12.00;11.00;6.00
44933;PMS3003;30667;43.614;1.442;2023-01-28T04:51:54;14.25;12.25;5.00
44933;PMS3003;30667;43.614;1.442;2023-01-28T04:54:19;14.25;12.25;6.00
44933;PMS3003;30667;43.614;1.442;2023-01-28T04:56:45;14.25;12.00;6.00
44933;PMS3003;30667;43.614;1.442;2023-01-28T04:59:10;11.50;11.25;6.00
44933;PMS3003;30667;43.614;1.442;2023-01-28T05:01:35;12.50;10.75;6.00
44933;PMS3003;30667;43.614;1.442;2023-01-28T05:04:01;11.75;11.00;6.00
44933;PMS3003;30667;43.614;1.442;2023-01-28T05:06:30;15.60;14.60;6.20
44933;PMS3003;30667;43.614;1.442;2023-01-28T05:08:55;12.00;11.20;6.00
44933;PMS3003;30667;43.614;1.442;2023-01-28T05:11:21;13.80;12.00;6.60
44933;PMS3003;30667;43.614;1.442;2023-01-28T05:13:47;14.50;14.00;6.00
44933;PMS3003;30667;43.614;1.442;2023-01-28T05:16:12;12.75;12.75;6.25
44933;PMS3003;30667;43.614;1.442;2023-01-28T05:18:38;14.00;12.50;6.00
44933;PMS3003;30667;43.614;1.442;2023-01-28T05:21:03;14.75;12.00;6.00
44933;PMS3003;30667;43.614;1.442;2023-01-28T05:23:29;16.25;14.00;6.00
44933;PMS3003;30667;43.614;1.442;2023-01-28T05:25:54;14.75;11.00;6.00
44933;PMS3003;30667;43.614;1.442;2023-01-28T05:28:20;13.75;13.00;6.25
44933;PMS3003;30667;43.614;1.442;2023-01-28T05:30:45;19.00;14.75;6.50
44933;PMS3003;30667;43.614;1.442;2023-01-28T05:33:10;16.50;14.25;5.50
44933;PMS3003;30667;43.614;1.442;2023-01-28T05:35:36;17.00;14.25;6.00
44933;PMS3003;30667;43.614;1.442;2023-01-28T05:38:01;15.75;14.25;6.25
44933;PMS3003;30667;43.614;1.442;2023-01-28T05:40:27;14.80;14.80;6.80
44933;PMS3003;30667;43.614;1.442;2023-01-28T05:42:53;11.00;11.00;6.00
44933;PMS3003;30667;43.614;1.442;2023-01-28T05:45:18;13.75;13.00;6.00
44933;PMS3003;30667;43.614;1.442;2023-01-28T05:47:43;14.00;12.00;6.00
44933;PMS3003;30667;43.614;1.442;2023-01-28T05:50:09;13.00;10.75;4.50
44933;PMS3003;30667;43.614;1.442;2023-01-28T05:52:37;17.20;15.60;6.00
44933;PMS3003;30667;43.614;1.442;2023-01-28T05:55:03;19.50;14.00;6.00
44933;PMS3003;30667;43.614;1.442;2023-01-28T05:57:28;13.75;11.75;6.00
44933;PMS3003;30667;43.614;1.442;2023-01-28T05:59:54;17.50;15.00;7.00
44933;PMS3003;30667;43.614;1.442;2023-01-28T06:02:19;16.50;14.50;6.00
44933;PMS3003;30667;43.614;1.442;2023-01-28T06:04:45;13.75;13.75;6.75
44933;PMS3003;30667;43.614;1.442;2023-01-28T06:07:10;10.75;9.75;4.00
44933;PMS3003;30667;43.614;1.442;2023-01-28T06:09:37;13.80;12.40;5.60
44933;PMS3003;30667;43.614;1.442;2023-01-28T06:12:03;16.50;14.00;6.25
44933;PMS3003;30667;43.614;1.442;2023-01-28T06:14:28;14.00;14.00;6.00
44933;PMS3003;30667;43.614;1.442;2023-01-28T06:16:54;13.50;12.25;5.50
44933;PMS3003;30667;43.614;1.442;2023-01-28T06:19:19;10.00;8.25;3.75
44933;PMS3003;30667;43.614;1.442;2023-01-28T06:21:44;15.00;13.75;6.00
44933;PMS3003;30667;43.614;1.442;2023-01-28T06:24:10;14.00;12.00;6.00
44933;PMS3003;30667;43.614;1.442;2023-01-28T06:26:36;14.80;14.00;7.00
44933;PMS3003;30667;43.614;1.442;2023-01-28T06:29:01;17.00;14.75;6.75
44933;PMS3003;30667;43.614;1.442;2023-01-28T06:31:26;17.00;14.50;6.00
44933;PMS3003;30667;43.614;1.442;2023-01-28T06:33:52;16.25;15.00;6.00
44933;PMS3003;30667;43.614;1.442;2023-01-28T06:36:17;17.50;15.50;7.00
44933;PMS3003;30667;43.614;1.442;2023-01-28T06:38:43;14.75;12.50;6.00
44933;PMS3003;30667;43.614;1.442;2023-01-28T06:41:08;21.25;14.25;7.00
44933;PMS3003;30667;43.614;1.442;2023-01-28T06:43:34;16.75;13.25;6.25
44933;PMS3003;30667;43.614;1.442;2023-01-28T06:45:59;13.25;13.25;6.00
44933;PMS3003;30667;43.614;1.442;2023-01-28T06:48:25;13.50;13.50;6.00
44933;PMS3003;30667;43.614;1.442;2023-01-28T06:50:51;17.00;15.00;6.60
44933;PMS3003;30667;43.614;1.442;2023-01-28T06:53:17;14.25;11.50;4.50
44933;PMS3003;30667;43.614;1.442;2023-01-28T06:55:43;15.00;12.00;7.00
44933;PMS3003;30667;43.614;1.442;2023-01-28T06:58:09;15.50;12.00;6.00
44933;PMS3003;30667;43.614;1.442;2023-01-28T07:00:34;12.00;12.00;6.00
44933;PMS3003;30667;43.614;1.442;2023-01-28T07:03:01;14.40;12.00;6.00
44933;PMS3003;30667;43.614;1.442;2023-01-28T07:05:26;13.50;13.50;6.75
44933;PMS3003;30667;43.614;1.442;2023-01-28T07:07:52;14.00;14.00;7.00
44933;PMS3003;30667;43.614;1.442;2023-01-28T07:10:17;15.00;12.25;6.75
44933;PMS3003;30667;43.614;1.442;2023-01-28T07:12:43;17.25;14.75;7.75
44933;PMS3003;30667;43.614;1.442;2023-01-28T07:15:08;15.25;12.00;6.75
44933;PMS3003;30667;43.614;1.442;2023-01-28T07:17:37;15.60;12.80;6.40
44933;PMS3003;30667;43.614;1.442;2023-01-28T07:20:03;15.00;12.20;6.60
44933;PMS3003;30667;43.614;1.442;2023-01-28T07:22:30;13.60;12.60;6.60
44933;PMS3003;30667;43.614;1.442;2023-01-28T07:24:55;11.50;10.00;4.00
44933;PMS3003;30667;43.614;1.442;2023-01-28T07:27:22;19.80;16.40;9.00
44933;PMS3003;30667;43.614;1.442;2023-01-28T07:29:48;17.75;16.50;9.00
44933;PMS3003;30667;43.614;1.442;2023-01-28T07:32:13;17.00;14.75;7.00
44933;PMS3003;30667;43.614;1.442;2023-01-28T07:34:38;16.50;15.25;7.25
44933;PMS3003;30667;43.614;1.442;2023-01-28T07:37:06;15.00;14.40;6.40
44933;PMS3003;30667;43.614;1.442;2023-01-28T07:39:32;17.75;15.25;9.00
44933;PMS3003;30667;43.614;1.442;2023-01-28T07:41:58;17.80;14.60;6.80
44933;PMS3003;30667;43.614;1.442;2023-01-28T07:44:24;16.00;15.00;7.50
44933;PMS3003;30667;43.614;1.442;2023-01-28T07:46:49;18.50;17.00;7.00
44933;PMS3003;30667;43.614;1.442;2023-01-28T07:49:15;17.75;15.00;7.00
44933;PMS3003;30667;43.614;1.442;2023-01-28T07:51:40;15.50;15.00;9.00
44933;PMS3003;30667;43.614;1.442;2023-01-28T07:54:05;20.00;17.25;10.00
44933;PMS3003;30667;43.614;1.442;2023-01-28T07:56:31;22.25;20.50;12.00
44933;PMS3003;30667;43.614;1.442;2023-01-28T07:58:56;19.50;17.00;8.00
44933;PMS3003;30667;43.614;1.442;2023-01-28T08:01:21;19.00;15.00;8.50
44933;PMS3003;30667;43.614;1.442;2023-01-28T08:03:47;17.75;17.25;9.00
44933;PMS3003;30667;43.614;1.442;2023-01-28T08:06:13;20.00;16.75;8.50
44933;PMS3003;30667;43.614;1.442;2023-01-28T08:08:38;18.25;16.75;9.00
44933;PMS3003;30667;43.614;1.442;2023-01-28T08:11:07;21.50;17.75;9.25
44933;PMS3003;30667;43.614;1.442;2023-01-28T08:13:33;25.60;20.60;9.00
44933;PMS3003;30667;43.614;1.442;2023-01-28T08:15:59;15.00;15.00;7.00
44933;PMS3003;30667;43.614;1.442;2023-01-28T08:18:25;17.00;15.75;8.50
44933;PMS3003;30667;43.614;1.442;2023-01-28T08:20:53;17.50;17.50;9.25
44933;PMS3003;30667;43.614;1.442;2023-01-28T08:23:20;16.80;15.60;7.80
44933;PMS3003;30667;43.614;1.442;2023-01-28T08:25:45;17.50;17.00;7.00
44933;PMS3003;30667;43.614;1.442;2023-01-28T08:28:12;16.00;14.40;7.00
44933;PMS3003;30667;43.614;1.442;2023-01-28T08:30:39;18.60;16.40;7.80
44933;PMS3003;30667;43.614;1.442;2023-01-28T08:33:06;18.40;16.60;7.00
44933;PMS3003;30667;43.614;1.442;2023-01-28T08:35:32;22.80;20.40;9.40
44933;PMS3003;30667;43.614;1.442;2023-01-28T08:37:59;18.80;16.80;7.00
44933;PMS3003;30667;43.614;1.442;2023-01-28T08:40:25;18.60;17.40;9.20
44933;PMS3003;30667;43.614;1.442;2023-01-28T08:42:52;23.40;17.80;9.20
44933;PMS3003;30667;43.614;1.442;2023-01-28T08:45:19;17.20;16.00;9.40
44933;PMS3003;30667;43.614;1.442;2023-01-28T08:48:02;20.20;17.80;9.00
44933;PMS3003;30667;43.614;1.442;2023-01-28T08:50:31;21.80;16.40;9.00
44933;PMS3003;30667;43.614;1.442;2023-01-28T08:53:00;19.80;17.20;9.00
44933;PMS3003;30667;43.614;1.442;2023-01-28T08:55:27;15.80;13.40;8.20
44933;PMS3003;30667;43.614;1.442;2023-01-28T08:57:53;22.40;19.00;9.40
44933;PMS3003;30667;43.614;1.442;2023-01-28T09:00:19;21.50;19.00;9.50
44933;PMS3003;30667;43.614;1.442;2023-01-28T09:02:46;19.80;16.80;9.00
44933;PMS3003;30667;43.614;1.442;2023-01-28T09:05:14;20.00;16.80;9.00
44933;PMS3003;30667;43.614;1.442;2023-01-28T09:07:40;19.00;17.50;9.25
44933;PMS3003;30667;43.614;1.442;2023-01-28T09:10:06;20.00;16.50;9.50
44933;PMS3003;30667;43.614;1.442;2023-01-28T09:12:31;23.75;20.25;10.75
44933;PMS3003;30667;43.614;1.442;2023-01-28T09:14:57;22.50;20.25;10.25
44933;PMS3003;30667;43.614;1.442;2023-01-28T09:17:22;20.00;17.50;9.00
44933;PMS3003;30667;43.614;1.442;2023-01-28T09:19:48;22.50;17.75;9.00
44933;PMS3003;30667;43.614;1.442;2023-01-28T09:22:14;22.40;20.20;9.40
44933;PMS3003;30667;43.614;1.442;2023-01-28T09:24:40;21.75;17.00;9.00
44933;PMS3003;30667;43.614;1.442;2023-01-28T09:27:05;18.00;17.00;7.00
44933;PMS3003;30667;43.614;1.442;2023-01-28T09:29:32;24.00;19.75;9.50
44933;PMS3003;30667;43.614;1.442;2023-01-28T09:31:58;19.60;18.00;10.00
44933;PMS3003;30667;43.614;1.442;2023-01-28T09:34:23;20.00;15.50;7.00
44933;PMS3003;30667;43.614;1.442;2023-01-28T09:36:49;20.75;19.50;9.75
44933;PMS3003;30667;43.614;1.442;2023-01-28T09:39:14;17.50;17.00;9.00
44933;PMS3003;30667;43.614;1.442;2023-01-28T09:47:10;18.00;16.60;8.20
44933;PMS3003;30667;43.614;1.442;2023-01-28T09:49:44;19.20;16.80;9.00
44933;PMS3003;30667;43.614;1.442;2023-01-28T09:52:15;18.00;16.60;10.00
44933;PMS3003;30667;43.614;1.442;2023-01-28T10:00:15;24.00;18.20;10.00
44933;PMS3003;30667;43.614;1.442;2023-01-28T10:10:42;22.60;18.00;9.00
44933;PMS3003;30667;43.614;1.442;2023-01-28T10:21:57;24.00;19.80;10.00
44933;PMS3003;30667;43.614;1.442;2023-01-28T10:24:19;21.60;18.80;10.20
44933;PMS3003;30667;43.614;1.442;2023-01-28T10:26:52;20.60;19.00;9.60
44933;PMS3003;30667;43.614;1.442;2023-01-28T10:29:19;22.50;19.00;11.75
44933;PMS3003;30667;43.614;1.442;2023-01-28T10:34:16;18.60;18.00;10.40
44933;PMS3003;30667;43.614;1.442;2023-01-28T10:36:41;18.50;14.25;9.00
44933;PMS3003;30667;43.614;1.442;2023-01-28T10:39:08;24.00;21.50;12.00
44933;PMS3003;30667;43.614;1.442;2023-01-28T10:41:42;18.80;17.00;9.00
44933;PMS3003;30667;43.614;1.442;2023-01-28T10:44:11;17.75;16.75;10.25
44933;PMS3003;30667;43.614;1.442;2023-01-28T10:46:42;18.20;18.00;10.00
44933;PMS3003;30667;43.614;1.442;2023-01-28T10:49:15;18.00;16.00;7.00
44933;PMS3003;30667;43.614;1.442;2023-01-28T10:51:46;21.00;16.40;7.80
44933;PMS3003;30667;43.614;1.442;2023-01-28T10:56:47;18.20;17.40;9.00
44933;PMS3003;30667;43.614;1.442;2023-01-28T11:01:57;16.20;15.00;7.80
44933;PMS3003;30667;43.614;1.442;2023-01-28T11:04:26;18.20;18.00;9.00
44933;PMS3003;30667;43.614;1.442;2023-01-28T11:09:30;20.40;18.40;10.00
44933;PMS3003;30667;43.614;1.442;2023-01-28T11:11:57;20.40;18.80;9.20
44933;PMS3003;30667;43.614;1.442;2023-01-28T11:14:34;22.40;18.00;9.80
44933;PMS3003;30667;43.614;1.442;2023-01-28T11:16:59;23.75;21.50;10.00
44933;PMS3003;30667;43.614;1.442;2023-01-28T11:19:27;16.25;15.25;9.50
44933;PMS3003;30667;43.614;1.442;2023-01-28T11:21:59;20.80;18.00;7.80
44933;PMS3003;30667;43.614;1.442;2023-01-28T11:24:26;21.00;19.60;11.60
44933;PMS3003;30667;43.614;1.442;2023-01-28T11:26:55;20.60;18.00;9.00
44933;PMS3003;30667;43.614;1.442;2023-01-28T11:31:54;20.00;18.60;10.00
44933;PMS3003;30667;43.614;1.442;2023-01-28T11:34:24;22.00;19.00;10.80
44933;PMS3003;30667;43.614;1.442;2023-01-28T11:36:52;21.00;18.00;8.80
44933;PMS3003;30667;43.614;1.442;2023-01-28T11:39:26;18.00;17.20;10.00
44933;PMS3003;30667;43.614;1.442;2023-01-28T11:41:53;18.20;17.00;9.00
44933;PMS3003;30667;43.614;1.442;2023-01-28T11:44:27;19.80;15.60;9.60
44933;PMS3003;30667;43.614;1.442;2023-01-28T11:49:30;19.40;18.40;10.00
44933;PMS3003;30667;43.614;1.442;2023-01-28T11:52:35;19.20;17.40;9.60
44933;PMS3003;30667;43.614;1.442;2023-01-28T11:58:13;17.80;16.00;8.60
44933;PMS3003;30667;43.614;1.442;2023-01-28T12:06:27;21.20;17.60;10.40
44933;PMS3003;30667;43.614;1.442;2023-01-28T12:33:04;18.40;17.20;7.40
44933;PMS3003;30667;43.614;1.442;2023-01-28T12:41:14;17.80;17.00;9.60
44933;PMS3003;30667;43.614;1.442;2023-01-28T12:44:01;21.00;18.80;9.20
44933;PMS3003;30667;43.614;1.442;2023-01-28T12:46:48;19.40;18.00;9.40
44933;PMS3003;30667;43.614;1.442;2023-01-28T12:54:21;18.20;16.20;9.60
44933;PMS3003;30667;43.614;1.442;2023-01-28T12:56:54;20.60;16.20;8.80
44933;PMS3003;30667;43.614;1.442;2023-01-28T12:59:28;21.40;20.80;10.00
44933;PMS3003;30667;43.614;1.442;2023-01-28T13:01:59;18.20;16.00;9.80
44933;PMS3003;30667;43.614;1.442;2023-01-28T13:13:24;21.80;18.80;9.80
44933;PMS3003;30667;43.614;1.442;2023-01-28T13:15:54;19.60;18.20;12.20
44933;PMS3003;30667;43.614;1.442;2023-01-28T13:21:03;21.60;20.20;10.00
44933;PMS3003;30667;43.614;1.442;2023-01-28T13:25:55;23.00;19.00;11.00
44933;PMS3003;30667;43.614;1.442;2023-01-28T13:28:32;18.80;17.80;10.40
44933;PMS3003;30667;43.614;1.442;2023-01-28T13:33:38;18.60;17.20;10.00
44933;PMS3003;30667;43.614;1.442;2023-01-28T13:38:36;16.80;16.00;8.60
44933;PMS3003;30667;43.614;1.442;2023-01-28T13:41:03;16.40;15.40;8.80
44933;PMS3003;30667;43.614;1.442;2023-01-28T13:46:00;19.00;18.80;10.00
44933;PMS3003;30667;43.614;1.442;2023-01-28T13:48:30;20.40;18.20;10.00
44933;PMS3003;30667;43.614;1.442;2023-01-28T13:50:57;22.00;20.60;13.00
44933;PMS3003;30667;43.614;1.442;2023-01-28T13:56:03;24.20;22.20;13.40
44933;PMS3003;30667;43.614;1.442;2023-01-28T14:09:37;23.80;21.40;11.80
44933;PMS3003;30667;43.614;1.442;2023-01-28T14:17:34;22.00;19.40;10.00
44933;PMS3003;30667;43.614;1.442;2023-01-28T14:20:27;18.40;18.00;12.00
44933;PMS3003;30667;43.614;1.442;2023-01-28T14:22:58;18.40;17.40;10.00
44933;PMS3003;30667;43.614;1.442;2023-01-28T14:25:49;24.60;20.80;11.60
44933;PMS3003;30667;43.614;1.442;2023-01-28T14:28:40;22.80;21.40;10.40
44933;PMS3003;30667;43.614;1.442;2023-01-28T14:31:25;23.60;22.00;11.60
44933;PMS3003;30667;43.614;1.442;2023-01-28T14:33:54;25.40;20.80;13.00
44933;PMS3003;30667;43.614;1.442;2023-01-28T14:36:29;20.60;18.80;11.00
44933;PMS3003;30667;43.614;1.442;2023-01-28T14:38:54;19.00;19.00;11.75
44933;PMS3003;30667;43.614;1.442;2023-01-28T14:41:25;18.60;18.60;11.60
44933;PMS3003;30667;43.614;1.442;2023-01-28T14:43:53;22.00;20.80;11.80
44933;PMS3003;30667;43.614;1.442;2023-01-28T14:57:36;22.00;19.20;12.00
44933;PMS3003;30667;43.614;1.442;2023-01-28T15:00:51;22.20;18.40;12.20
44933;PMS3003;30667;43.614;1.442;2023-01-28T15:03:07;24.80;20.60;11.60
44933;PMS3003;30667;43.614;1.442;2023-01-28T15:05:41;23.20;21.60;12.20
44933;PMS3003;30667;43.614;1.442;2023-01-28T15:08:07;23.00;20.75;12.00
44933;PMS3003;30667;43.614;1.442;2023-01-28T15:10:34;22.25;20.75;12.75
44933;PMS3003;30667;43.614;1.442;2023-01-28T15:13:14;23.60;22.40;13.80
44933;PMS3003;30667;43.614;1.442;2023-01-28T15:15:49;25.20;21.40;12.00
44933;PMS3003;30667;43.614;1.442;2023-01-28T15:18:16;21.60;19.60;12.60
44933;PMS3003;30667;43.614;1.442;2023-01-28T15:20:46;20.80;18.60;10.80
44933;PMS3003;30667;43.614;1.442;2023-01-28T15:23:14;21.80;18.60;11.80
44933;PMS3003;30667;43.614;1.442;2023-01-28T15:25:42;20.40;19.60;13.00
44933;PMS3003;30667;43.614;1.442;2023-01-28T15:31:05;22.00;20.40;12.00
44933;PMS3003;30667;43.614;1.442;2023-01-28T15:33:30;28.40;22.40;13.80
44933;PMS3003;30667;43.614;1.442;2023-01-28T15:35:56;27.50;24.50;15.00
44933;PMS3003;30667;43.614;1.442;2023-01-28T15:38:23;22.00;20.80;13.80
44933;PMS3003;30667;43.614;1.442;2023-01-28T15:43:32;24.80;19.80;11.80
44933;PMS3003;30667;43.614;1.442;2023-01-28T15:46:01;23.60;21.20;11.40
44933;PMS3003;30667;43.614;1.442;2023-01-28T15:48:28;28.20;23.80;14.80
44933;PMS3003;30667;43.614;1.442;2023-01-28T15:51:06;19.00;18.80;12.80
44933;PMS3003;30667;43.614;1.442;2023-01-28T15:53:42;21.40;19.00;11.80
44933;PMS3003;30667;43.614;1.442;2023-01-28T15:56:10;22.20;19.60;11.80
44933;PMS3003;30667;43.614;1.442;2023-01-28T15:58:38;23.40;21.20;11.80
44933;PMS3003;30667;43.614;1.442;2023-01-28T16:03:32;31.25;28.25;16.00
44933;PMS3003;30667;43.614;1.442;2023-01-28T16:06:01;30.80;26.60;16.20
44933;PMS3003;30667;43.614;1.442;2023-01-28T16:11:29;21.60;18.60;12.00
44933;PMS3003;30667;43.614;1.442;2023-01-28T16:13:58;23.40;22.20;12.60
44933;PMS3003;30667;43.614;1.442;2023-01-28T16:16:34;20.20;19.00;10.00
44933;PMS3003;30667;43.614;1.442;2023-01-28T16:19:03;18.40;18.00;11.80
44933;PMS3003;30667;43.614;1.442;2023-01-28T16:21:32;18.60;18.60;10.20
44933;PMS3003;30667;43.614;1.442;2023-01-28T16:26:43;16.80;16.80;11.60
44933;PMS3003;30667;43.614;1.442;2023-01-28T16:29:27;21.60;21.20;13.20
44933;PMS3003;30667;43.614;1.442;2023-01-28T16:31:53;23.00;21.40;12.80
44933;PMS3003;30667;43.614;1.442;2023-01-28T16:34:19;24.60;20.40;13.40
44933;PMS3003;30667;43.614;1.442;2023-01-28T16:36:45;22.20;19.60;11.60
44933;PMS3003;30667;43.614;1.442;2023-01-28T16:39:11;29.50;22.00;13.00
44933;PMS3003;30667;43.614;1.442;2023-01-28T16:41:40;18.25;18.00;12.00
44933;PMS3003;30667;43.614;1.442;2023-01-28T16:44:14;22.00;18.20;10.20
44933;PMS3003;30667;43.614;1.442;2023-01-28T16:46:41;18.40;15.80;10.00
44933;PMS3003;30667;43.614;1.442;2023-01-28T16:49:07;24.60;18.80;10.00
44933;PMS3003;30667;43.614;1.442;2023-01-28T16:51:33;17.60;16.00;10.00